Time;durP1;ratioP1;P1;durP2;ratioP2;P2;SDS_P1;SDS_P2;PMS_P1;PMS_P2;Temp;Humidity;BMP_temperature;BMP_pressure;BME280_temperature;BME280_humidity;BME280_pressure;Samples;Min_cycle;Max_cycle;Signal;HPM_P1;HPM_P2
2021/07/16 00:02:07;;;;;;;16.25;9.38;;;;;;;22.52;64.44;99981.81;1711247;82;21014;-76
2021/07/16 00:04:34;;;;;;;15.35;9.58;;;;;;;22.47;64.32;99984.80;1732320;82;21004;-78
2021/07/16 00:07:00;;;;;;;13.93;8.98;;;;;;;22.41;64.43;99977.58;1727902;82;21048;-77
2021/07/16 00:09:28;;;;;;;13.55;9.23;;;;;;;22.38;64.38;99977.45;1716487;82;21040;-77
2021/07/16 00:11:56;;;;;;;13.13;8.90;;;;;;;22.37;64.50;99983.05;1710991;82;21449;-77
2021/07/16 00:14:23;;;;;;;12.85;8.78;;;;;;;22.32;64.54;99982.34;1716424;82;21403;-77
2021/07/16 00:16:51;;;;;;;14.00;8.23;;;;;;;22.27;64.42;99974.88;1712543;81;21029;-76
2021/07/16 00:19:17;;;;;;;14.30;9.40;;;;;;;22.22;64.40;99984.11;1728227;82;20956;-76
2021/07/16 00:21:44;;;;;;;13.50;9.40;;;;;;;22.21;64.55;99981.62;1710515;83;21954;-76
2021/07/16 00:24:11;;;;;;;16.00;9.18;;;;;;;22.20;64.76;99986.70;1726405;82;21008;-76
2021/07/16 00:26:37;;;;;;;13.15;8.78;;;;;;;22.18;64.86;99984.19;1739911;82;20969;-76
2021/07/16 00:29:05;;;;;;;12.98;9.60;;;;;;;22.16;64.90;99986.27;1739706;81;21577;-76
2021/07/16 00:31:34;;;;;;;12.58;8.88;;;;;;;22.14;64.99;99985.66;1740137;81;21051;-76
2021/07/16 00:34:00;;;;;;;11.33;9.80;;;;;;;22.12;65.28;99986.38;1726047;82;21826;-76
2021/07/16 00:36:27;;;;;;;11.53;9.30;;;;;;;22.10;65.39;99985.77;1735179;82;21025;-76
2021/07/16 00:38:54;;;;;;;13.40;9.13;;;;;;;22.07;65.43;99998.27;1723897;80;21162;-76
2021/07/16 00:41:20;;;;;;;13.83;9.20;;;;;;;22.02;65.41;99991.83;1781513;80;20972;-76
2021/07/16 00:43:47;;;;;;;11.83;9.18;;;;;;;22.00;65.63;99988.83;1781475;79;20909;-76
2021/07/16 00:46:13;;;;;;;11.38;9.30;;;;;;;21.97;65.70;99983.84;1781699;80;21677;-76
2021/07/16 00:48:41;;;;;;;13.88;9.20;;;;;;;21.95;65.80;99985.91;1764925;80;21449;-76
2021/07/16 00:51:07;;;;;;;13.18;9.08;;;;;;;21.93;65.73;99991.20;1756984;80;21352;-76
2021/07/16 00:53:34;;;;;;;11.35;8.75;;;;;;;21.92;65.68;99990.89;1734371;80;20993;-76
2021/07/16 00:56:01;;;;;;;12.15;8.95;;;;;;;21.87;65.74;99985.28;1701906;83;21555;-76
2021/07/16 00:58:27;;;;;;;11.28;8.95;;;;;;;21.84;66.03;99982.48;1729798;80;22780;-78
2021/07/16 01:00:54;;;;;;;14.90;9.00;;;;;;;21.81;66.15;99979.36;1754408;81;20977;-78
2021/07/16 01:03:20;;;;;;;11.97;8.95;;;;;;;21.80;66.07;99985.78;1740619;80;21032;-78
2021/07/16 01:05:47;;;;;;;10.50;8.98;;;;;;;21.79;66.41;99984.13;1724503;83;20997;-78
2021/07/16 01:08:14;;;;;;;12.73;8.88;;;;;;;21.76;66.70;99982.68;1724470;81;21465;-78
2021/07/16 01:10:42;;;;;;;13.43;8.98;;;;;;;21.71;66.90;99976.58;1729040;80;21448;-78
2021/07/16 01:13:13;;;;;;;13.18;8.90;;;;;;;21.70;67.11;99976.77;1728948;81;20984;-76
2021/07/16 01:15:36;;;;;;;10.75;8.85;;;;;;;21.66;67.38;99981.73;1724006;83;20993;-76
2021/07/16 01:18:03;;;;;;;12.95;8.70;;;;;;;21.63;67.08;99981.31;1724600;83;20994;-76
2021/07/16 01:20:31;;;;;;;10.45;9.00;;;;;;;21.60;67.41;99983.88;1741115;80;21029;-76
2021/07/16 01:23:00;;;;;;;13.13;9.15;;;;;;;21.57;67.69;99976.23;1731257;80;22421;-76
2021/07/16 01:25:30;;;;;;;10.05;8.65;;;;;;;21.55;67.97;99975.61;1725759;80;21077;-76
2021/07/16 01:27:59;;;;;;;12.37;9.30;;;;;;;21.52;68.24;99979.20;1724614;83;21551;-78
2021/07/16 01:30:29;;;;;;;11.20;9.95;;;;;;;21.49;68.22;99982.30;1727129;81;20985;-78
2021/07/16 01:32:56;;;;;;;12.43;9.00;;;;;;;21.46;68.04;99974.65;1725510;81;20977;-77
2021/07/16 01:35:23;;;;;;;13.58;9.58;;;;;;;21.43;67.86;99975.38;1730888;81;21684;-78
2021/07/16 01:37:50;;;;;;;10.40;9.30;;;;;;;21.43;67.74;99966.48;1724631;83;21069;-77
2021/07/16 01:40:19;;;;;;;13.18;9.38;;;;;;;21.41;67.74;99968.52;1724235;81;21005;-78
2021/07/16 01:42:49;;;;;;;11.45;8.90;;;;;;;21.41;67.75;99968.52;1746527;81;21520;-78
2021/07/16 01:45:23;;;;;;;10.50;9.40;;;;;;;21.39;67.73;99969.25;1734104;81;21436;-78
2021/07/16 01:48:01;;;;;;;11.55;10.03;;;;;;;21.36;67.53;99960.26;1722716;83;21066;-78
2021/07/16 01:50:28;;;;;;;12.75;9.93;;;;;;;21.33;67.53;99947.23;1737455;81;21092;-78
2021/07/16 01:52:55;;;;;;;10.35;9.35;;;;;;;21.28;67.45;99947.00;1712513;80;21025;-78
2021/07/16 01:55:22;;;;;;;12.40;9.40;;;;;;;21.24;67.58;99941.70;1743767;80;21405;-78
2021/07/16 01:57:54;;;;;;;12.28;9.35;;;;;;;21.23;67.60;99938.19;1722883;83;21005;-78
2021/07/16 02:00:24;;;;;;;13.60;9.60;;;;;;;21.20;67.69;99941.25;1723987;81;22267;-78
2021/07/16 02:02:57;;;;;;;11.22;9.93;;;;;;;21.20;67.90;99941.77;1734271;81;21547;-78
2021/07/16 02:05:23;;;;;;;10.40;9.25;;;;;;;21.19;68.17;99942.80;1736645;81;21389;-77
2021/07/16 02:07:52;;;;;;;11.60;9.35;;;;;;;21.18;68.25;99940.63;1723160;81;21373;-77
2021/07/16 02:10:20;;;;;;;10.65;9.20;;;;;;;21.17;68.36;99938.16;1723649;82;21037;-78
2021/07/16 02:12:48;;;;;;;12.18;9.50;;;;;;;21.15;68.55;99937.02;1723625;82;21644;-77
2021/07/16 02:15:19;;;;;;;10.82;9.38;;;;;;;21.12;68.58;99946.80;1733509;82;20978;-78
2021/07/16 02:17:47;;;;;;;14.60;9.05;;;;;;;21.09;68.62;99941.31;1728148;81;21511;-77
2021/07/16 02:20:34;;;;;;;12.50;9.48;;;;;;;21.08;68.75;99945.03;1736019;82;20994;-77
2021/07/16 02:23:05;;;;;;;11.97;9.48;;;;;;;21.06;68.79;99944.93;1723783;82;21089;-78
2021/07/16 02:25:32;;;;;;;13.95;9.53;;;;;;;21.03;68.81;99939.42;1741962;81;21810;-77
2021/07/16 02:28:01;;;;;;;13.78;9.45;;;;;;;21.03;68.88;99942.11;1753026;81;21048;-77
2021/07/16 02:30:28;;;;;;;11.73;9.25;;;;;;;21.02;68.82;99941.80;1739567;81;20982;-78
2021/07/16 02:32:57;;;;;;;16.50;9.88;;;;;;;21.03;68.91;99940.77;1723846;81;21412;-78
2021/07/16 02:35:24;;;;;;;13.60;9.65;;;;;;;21.02;68.92;99949.85;1730403;81;20981;-78
2021/07/16 02:37:51;;;;;;;14.30;10.00;;;;;;;21.03;68.94;99946.13;1723275;83;22181;-78
2021/07/16 02:40:18;;;;;;;15.03;10.03;;;;;;;21.02;68.92;99940.45;1723703;81;21413;-77
2021/07/16 02:42:44;;;;;;;11.68;10.28;;;;;;;21.02;68.94;99944.48;1712124;81;21412;-78
2021/07/16 02:45:17;;;;;;;12.80;10.15;;;;;;;21.02;69.00;99946.34;1745116;80;21025;-78
2021/07/16 02:47:44;;;;;;;13.70;10.63;;;;;;;20.99;69.08;99944.89;1725242;83;21013;-77
2021/07/16 02:50:16;;;;;;;13.32;10.43;;;;;;;20.98;69.23;99941.89;1727368;81;21014;-77
2021/07/16 02:52:43;;;;;;;12.05;10.45;;;;;;;21.00;69.42;99947.89;1726700;80;20970;-78
2021/07/16 02:55:11;;;;;;;13.70;10.78;;;;;;;21.00;69.51;99947.89;1731631;80;21045;-78
2021/07/16 02:57:38;;;;;;;13.20;10.68;;;;;;;21.00;69.54;99948.41;1725112;83;21385;-78
2021/07/16 03:00:10;;;;;;;19.00;14.20;;;;;;;21.00;69.61;99950.57;1724817;83;20990;-78
2021/07/16 03:02:43;;;;;;;18.05;15.63;;;;;;;21.00;69.69;99947.89;1748571;80;21757;-77
2021/07/16 03:05:12;;;;;;;23.05;20.65;;;;;;;21.03;69.82;99947.99;1746032;80;21041;-78
2021/07/16 03:07:38;;;;;;;25.40;21.55;;;;;;;21.07;69.90;99950.61;1728575;80;21520;-78
2021/07/16 03:10:11;;;;;;;22.58;18.85;;;;;;;21.10;69.91;99947.00;1748663;81;20982;-78
2021/07/16 03:12:38;;;;;;;24.02;18.52;;;;;;;21.17;69.87;99947.55;1742138;81;20973;-78
2021/07/16 03:15:09;;;;;;;21.05;18.30;;;;;;;21.22;69.96;99949.11;1747343;80;20970;-78
2021/07/16 03:17:40;;;;;;;18.23;15.88;;;;;;;21.26;69.93;99943.66;1725111;81;21050;-78
2021/07/16 03:20:14;;;;;;;18.65;15.20;;;;;;;21.26;69.85;99939.15;1724044;83;21472;-77
2021/07/16 03:22:42;;;;;;;18.95;14.25;;;;;;;21.29;69.88;99940.08;1733924;81;21021;-78
2021/07/16 03:25:13;;;;;;;19.95;14.10;;;;;;;21.31;69.98;99939.87;1742239;81;21543;-77
2021/07/16 03:27:40;;;;;;;17.15;12.43;;;;;;;21.36;69.99;99944.14;1730386;81;22518;-77
2021/07/16 03:30:10;;;;;;;15.88;12.20;;;;;;;21.41;69.90;99945.16;1754654;81;21591;-78
2021/07/16 03:32:37;;;;;;;22.15;11.95;;;;;;;21.48;69.87;99945.71;1754662;81;20977;-77
2021/07/16 03:35:05;;;;;;;17.52;10.70;;;;;;;21.51;69.86;99947.47;1731559;80;21033;-78
2021/07/16 03:37:34;;;;;;;15.08;11.30;;;;;;;21.54;69.75;99941.70;1703570;81;21857;-78
2021/07/16 03:40:00;;;;;;;14.87;10.50;;;;;;;21.57;69.48;99945.84;1719660;81;21732;-77
2021/07/16 03:42:27;;;;;;;11.48;10.13;;;;;;;21.61;69.31;99946.55;1694186;83;20981;-77
2021/07/16 03:44:55;;;;;;;13.03;9.43;;;;;;;21.66;69.15;99948.13;1682468;83;21079;-77
2021/07/16 03:47:23;;;;;;;12.65;9.68;;;;;;;21.74;69.15;99946.29;1721324;83;20972;-77
2021/07/16 03:49:50;;;;;;;13.00;10.23;;;;;;;21.79;69.04;99950.00;1693226;83;21020;-77
2021/07/16 03:52:16;;;;;;;14.83;10.63;;;;;;;21.84;68.98;99945.38;1693255;84;22171;-77
2021/07/16 03:54:45;;;;;;;12.13;9.98;;;;;;;21.91;68.89;99948.90;1697740;82;21067;-77
2021/07/16 03:57:11;;;;;;;15.32;10.13;;;;;;;21.96;68.70;99950.44;1693221;84;21023;-77
2021/07/16 03:59:37;;;;;;;13.75;9.45;;;;;;;22.01;68.76;99949.32;1694511;83;21535;-77
2021/07/16 04:02:05;;;;;;;13.55;9.68;;;;;;;22.08;68.88;99952.02;1701765;81;21525;-76
2021/07/16 04:04:33;;;;;;;14.05;9.73;;;;;;;22.15;68.93;99950.99;1716996;83;22122;-78
2021/07/16 04:07:01;;;;;;;15.80;10.50;;;;;;;22.21;69.07;99946.14;1714600;83;21083;-78
2021/07/16 04:09:30;;;;;;;11.45;9.83;;;;;;;22.26;69.05;99954.39;1697927;83;21585;-78
2021/07/16 04:12:07;;;;;;;13.53;10.15;;;;;;;22.34;69.06;99957.92;1700112;83;20992;-77
2021/07/16 04:14:44;;;;;;;17.45;9.75;;;;;;;22.43;69.12;99952.11;1714824;83;21044;-78
2021/07/16 04:17:18;;;;;;;14.20;9.90;;;;;;;22.52;68.98;99948.69;1701871;83;22474;-78
2021/07/16 04:19:45;;;;;;;12.98;10.05;;;;;;;22.60;68.76;99948.47;1722458;82;20892;-77
2021/07/16 04:22:12;;;;;;;13.48;9.65;;;;;;;22.67;68.45;99945.22;1722124;83;21510;-77
2021/07/16 04:24:40;;;;;;;13.90;9.85;;;;;;;22.74;68.50;99949.25;1694795;83;21057;-78
2021/07/16 04:27:07;;;;;;;12.60;10.30;;;;;;;22.82;68.52;99945.81;1698527;82;21024;-78
2021/07/16 04:29:34;;;;;;;15.55;10.55;;;;;;;22.91;68.22;99951.83;1717849;83;22174;-77
2021/07/16 04:32:01;;;;;;;15.00;9.95;;;;;;;23.01;68.04;99951.38;1720215;83;21467;-77
2021/07/16 04:34:33;;;;;;;13.95;10.20;;;;;;;23.12;67.79;99946.14;1716442;83;21462;-77
2021/07/16 04:37:02;;;;;;;14.83;10.45;;;;;;;23.22;67.58;99951.59;1696164;82;21722;-78
2021/07/16 04:39:29;;;;;;;15.10;10.35;;;;;;;23.32;67.28;99950.61;1693335;83;21059;-75
2021/07/16 04:41:55;;;;;;;15.63;10.65;;;;;;;23.44;67.21;99963.70;1732985;81;21812;-78
2021/07/16 04:44:22;;;;;;;15.30;11.25;;;;;;;23.54;67.04;99962.72;1740634;80;21055;-79
2021/07/16 04:46:49;;;;;;;16.90;10.78;;;;;;;23.64;67.00;99956.88;1770843;80;21423;-73
2021/07/16 04:49:16;;;;;;;18.65;11.88;;;;;;;23.76;66.89;99963.26;1763786;80;20939;-76
2021/07/16 04:51:43;;;;;;;13.60;11.70;;;;;;;23.86;66.82;99960.91;1780668;80;20988;-77
2021/07/16 04:54:12;;;;;;;16.57;12.28;;;;;;;23.97;66.80;99968.81;1770261;80;21762;-75
2021/07/16 04:56:38;;;;;;;19.70;11.15;;;;;;;24.09;66.85;99963.00;1762411;80;21067;-77
2021/07/16 04:59:05;;;;;;;16.55;12.28;;;;;;;24.21;66.50;99965.80;1779516;80;20964;-77
2021/07/16 05:01:31;;;;;;;17.92;11.88;;;;;;;24.33;66.22;99961.39;1766191;80;21007;-73
2021/07/16 05:03:58;;;;;;;14.30;11.70;;;;;;;24.45;66.10;99964.19;1756305;79;20931;-77
2021/07/16 05:06:24;;;;;;;13.58;11.60;;;;;;;24.58;65.67;99961.87;1763496;79;22180;-78
2021/07/16 05:08:51;;;;;;;15.40;10.18;;;;;;;24.73;65.73;99964.52;1752142;79;20972;-78
2021/07/16 05:11:19;;;;;;;13.62;8.20;;;;;;;24.87;65.26;99957.61;1751140;82;20936;-77
2021/07/16 05:13:47;;;;;;;11.15;6.40;;;;;;;25.00;63.96;99963.70;1756570;79;21039;-78
2021/07/16 05:16:15;;;;;;;11.12;5.00;;;;;;;25.19;62.39;99965.91;1754836;80;21399;-78
2021/07/16 05:18:43;;;;;;;8.65;4.28;;;;;;;25.34;58.42;99961.44;1770715;79;21020;-78
2021/07/16 05:21:11;;;;;;;8.35;4.40;;;;;;;25.53;56.98;99958.98;1750667;82;20975;-77
2021/07/16 05:23:38;;;;;;;7.90;4.33;;;;;;;25.68;56.36;99955.34;1761153;79;20931;-75
2021/07/16 05:26:04;;;;;;;8.08;4.37;;;;;;;25.84;55.03;99957.11;1781687;80;20937;-75
2021/07/16 05:28:31;;;;;;;8.18;4.40;;;;;;;25.98;54.57;99955.86;1757695;80;20979;-75
2021/07/16 05:30:59;;;;;;;11.48;4.33;;;;;;;26.10;53.68;99959.40;1753881;79;22840;-79
2021/07/16 05:33:26;;;;;;;6.12;4.10;;;;;;;26.23;53.15;99957.81;1758216;79;21007;-75
2021/07/16 05:35:54;;;;;;;8.03;4.03;;;;;;;26.34;52.33;99956.17;1750828;82;20987;-77
2021/07/16 05:38:22;;;;;;;11.65;4.00;;;;;;;26.45;52.41;99954.58;1757511;79;20990;-77
2021/07/16 05:40:49;;;;;;;6.75;4.12;;;;;;;26.56;50.69;99959.70;1769464;80;21402;-76
2021/07/16 05:43:15;;;;;;;12.25;4.40;;;;;;;26.66;51.54;99957.21;1777220;79;22636;-77
2021/07/16 05:45:42;;;;;;;8.68;4.05;;;;;;;26.77;50.55;99963.14;1764109;80;20984;-77
2021/07/16 05:48:10;;;;;;;8.45;4.00;;;;;;;26.87;49.90;99966.61;1781539;80;21723;-77
2021/07/16 05:50:38;;;;;;;7.58;4.17;;;;;;;26.97;50.39;99968.17;1759521;80;20983;-74
2021/07/16 05:53:05;;;;;;;9.83;4.05;;;;;;;27.07;49.48;99958.93;1758215;79;21402;-77
2021/07/16 05:55:33;;;;;;;6.92;4.33;;;;;;;27.14;49.50;99962.34;1751288;80;22202;-76
2021/07/16 05:58:00;;;;;;;10.80;4.00;;;;;;;27.20;49.29;99957.82;1770574;80;20977;-77
2021/07/16 06:00:27;;;;;;;8.08;4.15;;;;;;;27.25;49.13;99948.45;1781588;80;20925;-77
2021/07/16 06:02:54;;;;;;;7.17;3.90;;;;;;;27.28;48.85;99949.31;1758529;79;21344;-76
2021/07/16 06:05:22;;;;;;;6.97;4.35;;;;;;;27.35;49.33;99952.71;1751007;82;20983;-75
2021/07/16 06:07:48;;;;;;;8.25;4.50;;;;;;;27.42;49.14;99953.39;1769776;80;21814;-75
2021/07/16 06:10:14;;;;;;;7.85;4.30;;;;;;;27.49;48.49;99947.27;1781849;80;20912;-75
2021/07/16 06:12:41;;;;;;;10.00;4.75;;;;;;;27.57;48.77;99952.84;1778374;79;20975;-77
2021/07/16 06:15:10;;;;;;;7.28;4.37;;;;;;;27.61;48.79;99946.70;1770860;80;20979;-76
2021/07/16 06:17:38;;;;;;;7.78;4.60;;;;;;;27.68;48.26;99949.80;1750818;82;20916;-76
2021/07/16 06:20:07;;;;;;;12.25;4.90;;;;;;;27.74;47.55;99951.55;1751767;80;22180;-77
2021/07/16 06:22:34;;;;;;;9.23;4.83;;;;;;;27.76;47.78;99943.45;1752652;79;21031;-77
2021/07/16 06:25:01;;;;;;;6.08;4.87;;;;;;;27.78;47.85;99949.45;1761022;80;21442;-76
2021/07/16 06:27:27;;;;;;;12.13;5.00;;;;;;;27.83;48.48;99949.55;1769479;79;21360;-78
2021/07/16 06:29:53;;;;;;;11.93;5.28;;;;;;;27.89;48.77;99947.23;1765918;79;21347;-75
2021/07/16 06:32:21;;;;;;;12.70;4.95;;;;;;;27.95;48.52;99944.86;1761094;80;22420;-77
2021/07/16 06:34:47;;;;;;;10.70;4.92;;;;;;;28.02;48.43;99942.00;1762266;80;20998;-77
2021/07/16 06:37:14;;;;;;;6.45;4.83;;;;;;;28.09;49.12;99944.56;1772837;79;20924;-76
2021/07/16 06:39:42;;;;;;;8.55;5.15;;;;;;;28.16;48.23;99947.91;1758568;80;21007;-76
2021/07/16 06:42:08;;;;;;;15.90;5.55;;;;;;;28.18;48.65;99943.89;1739838;80;21495;-75
2021/07/16 06:44:35;;;;;;;9.53;5.20;;;;;;;28.24;48.68;99942.88;1732388;81;22643;-78
2021/07/16 06:47:04;;;;;;;8.48;5.58;;;;;;;28.28;48.50;99936.95;1726943;81;21008;-78
2021/07/16 06:49:32;;;;;;;9.45;5.15;;;;;;;28.31;48.69;99940.04;1737276;80;21553;-77
2021/07/16 06:51:59;;;;;;;10.85;5.55;;;;;;;28.39;49.00;99939.63;1745642;80;21375;-79
2021/07/16 06:54:25;;;;;;;11.45;5.33;;;;;;;28.45;48.81;99940.50;1724640;82;20985;-78
2021/07/16 06:56:53;;;;;;;10.88;5.90;;;;;;;28.49;48.38;99939.77;1731819;81;21784;-77
2021/07/16 06:59:20;;;;;;;11.78;5.67;;;;;;;28.58;48.58;99940.70;1739560;80;21470;-78
2021/07/16 07:01:47;;;;;;;8.78;5.50;;;;;;;28.64;47.82;99935.61;1767469;80;20952;-78
2021/07/16 07:04:14;;;;;;;11.78;5.78;;;;;;;28.69;48.05;99932.97;1762229;80;21050;-77
2021/07/16 07:06:42;;;;;;;10.60;5.75;;;;;;;28.76;48.26;99936.34;1758096;80;21095;-81
2021/07/16 07:09:09;;;;;;;7.55;5.65;;;;;;;28.87;48.36;99934.56;1723108;82;21820;-77
2021/07/16 07:11:36;;;;;;;10.38;5.55;;;;;;;28.96;48.48;99935.27;1771638;80;20956;-79
2021/07/16 07:14:03;;;;;;;9.65;5.67;;;;;;;29.07;48.54;99932.13;1777122;80;21123;-79
2021/07/16 07:16:30;;;;;;;8.40;5.28;;;;;;;29.18;47.56;99934.42;1761620;80;21058;-78
2021/07/16 07:18:58;;;;;;;9.18;6.03;;;;;;;29.24;47.38;99929.30;1753087;80;21066;-80
2021/07/16 07:21:25;;;;;;;8.60;5.60;;;;;;;29.29;46.95;99927.48;1732197;80;21772;-80
2021/07/16 07:23:51;;;;;;;9.33;5.47;;;;;;;29.39;46.89;99931.38;1749445;80;21108;-79
2021/07/16 07:26:18;;;;;;;11.22;5.65;;;;;;;29.39;46.89;99931.38;1737435;80;20960;-79
2021/07/16 07:28:45;;;;;;;8.58;5.35;;;;;;;29.46;46.81;99925.20;1739980;80;20999;-79
2021/07/16 07:31:11;;;;;;;9.30;5.42;;;;;;;29.54;46.92;99922.88;1733969;80;21012;-77
2021/07/16 07:33:38;;;;;;;8.70;5.42;;;;;;;29.62;47.04;99921.02;1751997;80;21765;-77
2021/07/16 07:36:06;;;;;;;11.83;6.03;;;;;;;29.73;45.61;99929.31;1749085;82;21015;-78
2021/07/16 07:38:34;;;;;;;7.55;5.65;;;;;;;29.73;45.61;99929.31;1728552;82;21238;-77
2021/07/16 07:41:01;;;;;;;12.05;6.45;;;;;;;29.72;45.83;99931.73;1731357;80;21094;-77
2021/07/16 07:43:28;;;;;;;9.15;6.12;;;;;;;29.74;46.59;99935.03;1750149;82;21488;-77
2021/07/16 07:45:54;;;;;;;8.95;5.75;;;;;;;29.74;46.59;99935.03;1750017;82;22245;-78
2021/07/16 07:48:21;;;;;;;8.13;5.58;;;;;;;29.81;46.18;99935.62;1739479;80;21009;-79
2021/07/16 07:50:48;;;;;;;10.50;5.67;;;;;;;29.87;47.44;99940.05;1761825;81;21147;-78
2021/07/16 07:53:14;;;;;;;10.30;5.75;;;;;;;29.99;46.85;99942.05;1770440;80;20954;-79
2021/07/16 07:55:41;;;;;;;13.45;9.85;;;;;;;30.07;46.76;99936.69;1772932;80;21004;-79
2021/07/16 07:58:07;;;;;;;10.13;6.03;;;;;;;30.14;46.58;99943.56;1774891;80;22166;-78
2021/07/16 08:00:34;;;;;;;10.15;5.80;;;;;;;30.18;45.78;99943.31;1781929;80;20937;-78
2021/07/16 08:03:00;;;;;;;9.28;5.70;;;;;;;30.14;46.10;99943.56;1781651;80;20988;-77
2021/07/16 08:05:26;;;;;;;8.55;5.62;;;;;;;30.14;46.10;99943.56;1782082;79;20985;-79
2021/07/16 08:07:53;;;;;;;11.78;5.97;;;;;;;30.18;46.86;99941.13;1769685;79;21459;-79
2021/07/16 08:10:22;;;;;;;10.98;6.00;;;;;;;30.24;46.49;99943.36;1762294;79;21767;-78
2021/07/16 08:12:49;;;;;;;10.72;5.72;;;;;;;30.34;46.68;99940.70;1781680;80;21365;-81
2021/07/16 08:15:16;;;;;;;11.55;5.92;;;;;;;30.43;46.92;99941.31;1756869;80;20933;-77
2021/07/16 08:17:43;;;;;;;10.63;5.75;;;;;;;30.52;46.58;99940.28;1772581;80;21224;-78
2021/07/16 08:20:10;;;;;;;8.00;5.58;;;;;;;30.62;46.30;99947.70;1781721;80;20976;-78
2021/07/16 08:22:38;;;;;;;11.65;5.65;;;;;;;30.67;46.21;99942.29;1787364;79;22185;-78
2021/07/16 08:25:06;;;;;;;11.08;5.20;;;;;;;30.72;46.02;99945.05;1746233;80;21368;-78
2021/07/16 08:27:32;;;;;;;11.08;5.58;;;;;;;30.83;45.95;99944.02;1767485;79;21006;-78
2021/07/16 08:29:59;;;;;;;9.25;5.70;;;;;;;30.90;44.68;99948.69;1750725;82;21030;-78
2021/07/16 08:32:26;;;;;;;12.00;5.72;;;;;;;30.89;46.23;99942.97;1777134;80;21042;-78
2021/07/16 08:34:52;;;;;;;14.58;5.65;;;;;;;30.95;46.22;99948.70;1781721;80;22185;-79
2021/07/16 08:37:19;;;;;;;9.80;5.50;;;;;;;31.00;45.48;99950.09;1776363;79;20917;-80
2021/07/16 08:39:45;;;;;;;16.73;5.53;;;;;;;31.07;45.98;99941.64;1796606;79;20941;-79
2021/07/16 08:42:14;;;;;;;9.93;5.47;;;;;;;31.12;45.23;99939.49;1806432;79;20977;-79
2021/07/16 08:44:43;;;;;;;10.35;5.47;;;;;;;31.23;45.72;99943.92;1781728;80;21543;-79
2021/07/16 08:47:10;;;;;;;6.30;5.12;;;;;;;31.34;44.34;99943.67;1772114;79;21823;-79
2021/07/16 08:49:38;;;;;;;8.40;5.35;;;;;;;31.35;43.44;99941.77;1800293;79;20913;-78
2021/07/16 08:52:06;;;;;;;11.10;5.05;;;;;;;31.30;43.01;99945.31;1811428;79;20981;-79
2021/07/16 08:54:37;;;;;;;11.28;8.25;;;;;;;31.26;43.30;99952.38;1813733;79;20992;-79
2021/07/16 08:57:01;;;;;;;9.83;6.85;;;;;;;31.23;42.96;99948.84;1786931;79;20959;-79
2021/07/16 08:59:29;;;;;;;10.68;5.35;;;;;;;31.21;43.87;99942.02;1781613;80;22222;-78
2021/07/16 09:01:55;;;;;;;12.90;5.40;;;;;;;31.31;43.99;99939.31;1794688;79;20968;-78
2021/07/16 09:04:23;;;;;;;7.12;5.45;;;;;;;31.44;44.42;99937.97;1788163;79;20962;-78
2021/07/16 09:06:54;;;;;;;7.35;5.37;;;;;;;31.59;42.93;99939.37;1769960;80;21471;-78
2021/07/16 09:09:36;;;;;;;16.97;6.53;;;;;;;31.67;42.34;99939.39;1781977;80;21003;-78
2021/07/16 09:12:11;;;;;;;8.48;4.87;;;;;;;31.70;42.20;99943.75;1781676;80;21086;-77
2021/07/16 09:14:37;;;;;;;9.80;4.97;;;;;;;31.62;41.16;99940.19;1764580;79;20976;-78
2021/07/16 09:17:15;;;;;;;5.87;5.05;;;;;;;31.55;42.30;99937.70;1791137;79;20969;-78
2021/07/16 09:19:49;;;;;;;8.90;5.28;;;;;;;31.59;42.67;99933.91;1813730;79;20988;-78
2021/07/16 09:22:21;;;;;;;8.15;5.30;;;;;;;31.68;42.45;99934.20;1781782;79;21450;-79
2021/07/16 09:24:51;;;;;;;6.78;5.85;;;;;;;31.77;41.84;99929.32;1772602;79;21865;-77
2021/07/16 09:27:40;;;;;;;9.93;6.15;;;;;;;31.93;43.02;99930.13;1798037;79;20898;-78
2021/07/16 09:30:22;;;;;;;10.38;5.33;;;;;;;32.12;42.18;99929.84;1782771;78;20925;-77
2021/07/16 09:33:05;;;;;;;8.90;5.35;;;;;;;32.17;42.29;99929.85;1796810;79;21039;-78
2021/07/16 09:35:37;;;;;;;10.18;5.05;;;;;;;32.25;41.61;99931.21;1751895;80;20971;-80
2021/07/16 09:38:08;;;;;;;8.25;5.40;;;;;;;32.23;41.02;99933.37;1750911;82;22514;-80
2021/07/16 09:40:38;;;;;;;8.80;5.20;;;;;;;32.22;40.55;99938.58;1778452;80;20914;-81
2021/07/16 09:43:16;;;;;;;8.78;5.40;;;;;;;32.21;39.95;99932.84;1795545;79;21035;-80
2021/07/16 09:45:46;;;;;;;8.13;5.00;;;;;;;32.22;39.77;99933.66;1781025;80;21399;-79
2021/07/16 09:48:34;;;;;;;7.95;5.05;;;;;;;32.24;39.81;99936.41;1778133;80;20960;-81
2021/07/16 09:51:20;;;;;;;10.45;6.92;;;;;;;32.27;40.88;99932.30;1781642;80;22648;-82
2021/07/16 09:54:01;;;;;;;6.42;5.25;;;;;;;32.32;40.49;99931.76;1769094;79;21042;-81
2021/07/16 09:56:31;;;;;;;7.55;4.92;;;;;;;32.41;39.44;99934.20;1752757;80;20932;-80
2021/07/16 09:59:08;;;;;;;10.03;5.17;;;;;;;32.54;39.57;99923.81;1750795;81;20924;-80
2021/07/16 10:01:39;;;;;;;11.38;5.62;;;;;;;32.65;39.32;99930.88;1750795;81;20936;-82
2021/07/16 10:04:19;;;;;;;10.55;5.42;;;;;;;32.76;40.81;99929.74;1760844;80;21823;-80
2021/07/16 10:06:49;;;;;;;10.18;5.78;;;;;;;32.89;41.51;99930.53;1750783;82;20932;-82
2021/07/16 10:09:21;;;;;;;8.95;5.45;;;;;;;33.01;41.76;99924.76;1750835;81;20908;-81
2021/07/16 10:11:52;;;;;;;9.13;5.50;;;;;;;33.12;40.77;99926.89;1773447;79;20905;-81
2021/07/16 10:14:19;;;;;;;15.60;5.58;;;;;;;33.23;40.26;99921.62;1762288;79;20983;-82
2021/07/16 10:16:49;;;;;;;13.72;7.45;;;;;;;33.24;40.00;99915.05;1771650;79;21424;-82
2021/07/16 10:19:16;;;;;;;13.65;5.92;;;;;;;33.30;40.30;99916.11;1781869;80;20916;-77
2021/07/16 10:21:47;;;;;;;9.73;5.33;;;;;;;33.32;39.00;99915.83;1781647;80;21014;-79
2021/07/16 10:24:18;;;;;;;10.85;5.42;;;;;;;33.33;39.40;99914.72;1774743;79;20985;-81
2021/07/16 10:26:44;;;;;;;10.58;5.75;;;;;;;33.42;39.48;99913.60;1811600;79;20906;-80
2021/07/16 10:29:42;;;;;;;10.45;6.05;;;;;;;33.48;39.52;99909.16;1791518;79;21783;-81
2021/07/16 10:32:09;;;;;;;12.73;5.72;;;;;;;33.56;39.82;99911.84;1777371;80;20893;-79
2021/07/16 10:34:37;;;;;;;8.63;5.70;;;;;;;33.55;38.64;99911.03;1796667;79;21297;-79
2021/07/16 10:37:08;;;;;;;9.73;5.37;;;;;;;33.63;39.85;99908.24;1799456;79;20954;-80
2021/07/16 10:39:54;;;;;;;8.05;5.70;;;;;;;33.75;39.19;99904.58;1787955;79;21026;-78
2021/07/16 10:42:36;;;;;;;7.45;5.92;;;;;;;33.90;40.00;99899.56;1756943;79;22749;-78
2021/07/16 10:45:07;;;;;;;12.88;6.12;;;;;;;33.96;38.40;99895.66;1781600;80;20884;-79
2021/07/16 10:47:39;;;;;;;7.05;5.97;;;;;;;33.94;38.75;99895.13;1767098;79;21015;-79
2021/07/16 10:50:32;;;;;;;8.97;5.83;;;;;;;34.05;39.30;99894.48;1751087;82;21070;-79
2021/07/16 10:52:59;;;;;;;10.53;5.65;;;;;;;34.09;39.28;99889.52;1751133;82;20924;-79
2021/07/16 10:55:39;;;;;;;13.38;6.10;;;;;;;34.17;38.61;99890.82;1744362;79;20940;-79
2021/07/16 10:58:30;;;;;;;9.48;5.72;;;;;;;34.28;38.72;99884.67;1756408;79;20924;-79
2021/07/16 11:01:02;;;;;;;7.03;5.83;;;;;;;34.31;38.36;99874.48;1730169;82;21350;-79
2021/07/16 11:03:47;;;;;;;8.25;5.65;;;;;;;34.41;40.26;99878.52;1751917;80;21061;-79
2021/07/16 11:06:14;;;;;;;7.47;5.67;;;;;;;34.49;38.77;99880.63;1775596;80;20969;-79
2021/07/16 11:08:48;;;;;;;9.18;5.50;;;;;;;34.55;38.53;99878.09;1781808;80;20980;-77
2021/07/16 11:11:21;;;;;;;9.95;5.28;;;;;;;34.69;38.76;99882.30;1783560;79;20977;-77
2021/07/16 11:13:55;;;;;;;10.18;5.22;;;;;;;34.74;38.26;99878.11;1783612;79;20929;-78
2021/07/16 11:16:29;;;;;;;;;;;;;;;34.84;38.56;99873.05;1816918;79;21027;-77
2021/07/16 11:19:11;;;;;;;8.00;5.58;;;;;;;35.06;38.28;99873.34;1812371;79;20130;-77
2021/07/16 11:21:50;;;;;;;7.40;5.30;;;;;;;35.13;37.36;99884.77;1766058;79;23347;-77
2021/07/16 11:24:22;;;;;;;8.68;5.85;;;;;;;35.09;36.76;99885.64;1757637;79;20936;-77
2021/07/16 11:27:08;;;;;;;9.98;5.35;;;;;;;35.08;36.09;99879.90;1751351;82;20936;-77
2021/07/16 11:29:41;;;;;;;8.83;5.70;;;;;;;35.07;35.64;99869.48;1776322;79;20973;-77
2021/07/16 11:32:12;;;;;;;17.32;7.53;;;;;;;35.08;36.65;99873.85;1774480;79;21351;-77
2021/07/16 11:34:53;;;;;;;8.83;5.60;;;;;;;35.13;37.43;99872.42;1813797;79;21821;-77
2021/07/16 11:37:26;;;;;;;8.00;5.62;;;;;;;35.22;35.71;99873.35;1812663;79;20949;-78